Latest Weather Observations for Cape Bruny AWS

IDT60801

Issued at 12:35 am EDT Friday 31 October 2014 (issued every 30 minutes, with the page automatically refreshed every 10 minutes)

About weather observations | Map of weather stations | Latest weather observations for TAS | Other Formats
Station Details ID: 094198 Name: CAPE BRUNY (CAPE BRUNY) Lat: -43.49 Lon: 147.14 Height: 59.7 m
Data from the previous 72 hours. | See also: Recent months at Cape Bruny AWS
Date/Time
EDT
Temp
°C
App
Temp
°C
Dew
Point
Rel
Hum
%
Delta-T
°C
Wind Press
QNH
hPa
Press
MSL
hPa
Rain
since 9 am
mm
Dir
 
Spd
km/h
Gust
km/h
Spd
kts
Gust
kts
31/12:30am 11.5 7.2 6.8 73 2.2 NNW 19 22 10 12 1007.2 1007.2 0.0
31/12:00am 11.3 8.3 6.2 71 2.4 NNW 11 15 6 8 1007.5 1007.5 0.0
 
Date/Time
EDT
Temp
°C
App
Temp
°C
Dew
Point
Rel
Hum
%
Delta-T
°C
Wind Press
QNH
hPa
Press
MSL
hPa
Rain
since 9 am
mm
Dir
 
Spd
km/h
Gust
km/h
Spd
kts
Gust
kts
30/11:30pm 11.4 9.1 5.9 69 2.6 NNW 7 9 4 5 1007.5 1007.5 0.0
30/11:00pm 12.0 6.9 5.9 66 2.9 NW 22 33 12 18 1007.5 1007.5 0.0
30/10:30pm 11.9 4.8 6.4 69 2.6 WNW 33 43 18 23 1007.5 1007.5 0.0
30/10:00pm 12.1 5.0 5.5 64 3.1 WNW 32 48 17 26 1007.7 1007.7 0.0
30/09:30pm 12.2 6.2 5.1 62 3.3 WNW 26 41 14 22 1007.7 1007.7 0.0
30/09:00pm 12.2 5.4 5.1 62 3.3 WNW 30 41 16 22 1007.6 1007.6 0.0
30/08:30pm 12.2 5.4 4.9 61 3.4 WNW 30 43 16 23 1007.6 1007.6 0.0
30/08:24pm 12.1 4.9 4.8 61 3.3 WNW 32 43 17 23 1007.5 1007.5 0.0
30/08:00pm 11.5 7.7 5.6 67 2.7 W 15 24 8 13 1007.5 1007.5 0.0
30/07:30pm 11.6 7.7 5.3 65 2.9 WSW 15 20 8 11 1007.4 1007.4 0.0
30/07:00pm 11.9 7.7 5.5 65 3.0 WSW 17 26 9 14 1007.3 1007.3 0.0
30/06:30pm 12.3 7.0 5.0 61 3.4 WSW 22 33 12 18 1007.0 1007.0 0.0
30/06:00pm 12.6 8.9 6.2 65 3.0 WSW 15 22 8 12 1007.0 1007.0 0.0
30/05:30pm 12.6 10.6 6.4 66 3.0 S 6 11 3 6 1007.1 1007.1 0.0
30/05:00pm 12.4 10.9 6.9 69 2.7 SSE 4 9 2 5 1007.1 1007.1 0.0
30/04:30pm 12.1 7.6 6.8 70 2.5 WSW 20 26 11 14 1007.0 1007.0 0.0
30/04:00pm 12.0 7.1 6.7 70 2.5 WSW 22 32 12 17 1007.0 1007.0 0.0
30/03:30pm 11.8 8.2 6.9 72 2.3 SW 15 24 8 13 1007.0 1007.0 0.0
30/03:00pm 11.4 6.5 6.7 73 2.2 SW 22 32 12 17 1007.1 1007.1 0.0
30/02:30pm 11.6 8.4 6.9 73 2.2 SW 13 26 7 14 1007.1 1007.1 0.0
30/02:00pm 11.8 8.2 6.7 71 2.4 W 15 22 8 12 1007.2 1007.2 0.0
30/01:30pm 11.3 6.2 6.0 70 2.5 WSW 22 32 12 17 1007.2 1007.2 0.0
30/01:00pm 11.6 5.4 6.1 69 2.6 WSW 28 33 15 18 1006.9 1006.9 0.0
30/12:30pm 12.3 5.3 5.9 65 3.0 WSW 32 41 17 22 1006.9 1006.9 0.0
30/12:00pm 13.1 6.3 6.7 65 3.1 WSW 32 44 17 24 1006.9 1006.9 0.0
30/11:30am 12.7 4.1 6.3 65 3.0 W 41 52 22 28 1006.9 1006.9 0.0
30/11:00am 12.2 2.5 5.8 65 3.0 W 46 59 25 32 1006.9 1006.9 0.0
30/10:30am 11.7 3.0 6.0 68 2.7 WSW 41 54 22 29 1007.0 1007.0 0.0
30/10:00am 11.4 1.3 5.5 67 2.7 W 48 61 26 33 1006.9 1006.9 0.0
30/09:30am 11.7 1.4 6.4 70 2.5 WSW 50 65 27 35 1006.5 1006.5 0.0
30/09:09am 11.0 3.3 6.9 76 2.0 WSW 37 56 20 30 1006.5 1006.5 0.0
30/09:00am 10.8 2.7 6.9 77 1.9 WSW 39 50 21 27 1006.6 1006.6 0.2
30/08:50am 10.2 1.3 6.9 80 1.6 WSW 43 61 23 33 1006.7 1006.7 0.2
30/08:30am 9.6 1.7 7.7 88 0.9 WSW 39 48 21 26 1006.8 1006.8 0.2
30/08:00am 10.3 2.8 8.1 86 1.1 WSW 37 48 20 26 1006.7 1006.7 0.2
30/07:30am 9.9 1.1 8.0 88 0.9 WSW 44 57 24 31 1006.4 1006.4 0.0
30/07:20am 9.9 2.8 8.2 89 0.8 WSW 35 59 19 32 1006.2 1006.2 0.0
30/07:00am 10.2 5.4 8.8 91 0.7 WSW 24 35 13 19 1006.1 1006.1 0.0
30/06:30am 10.1 5.3 8.7 91 0.7 WSW 24 33 13 18 1005.9 1005.9 0.0
30/06:00am 10.5 5.7 8.9 90 0.8 SW 24 35 13 19 1005.7 1005.7 0.0
30/05:40am 10.7 5.1 8.6 87 1.0 SW 28 37 15 20 1005.5 1005.5 0.0
30/05:30am 10.5 8.9 8.1 85 1.2 N 6 9 3 5 1005.2 1005.2 0.0
30/05:00am 10.6 8.8 8.0 84 1.3 NE 7 9 4 5 1005.2 1005.2 0.0
30/04:30am 10.8 10.0 8.0 83 1.4 SE 2 7 1 4 1005.3 1005.3 0.0
30/04:00am 10.8 10.3 7.9 82 1.4 CALM 0 0 0 0 1005.6 1005.6 0.0
30/03:30am 11.3 9.1 7.8 79 1.7 SW 9 17 5 9 1005.5 1005.5 0.0
30/03:00am 11.5 7.1 7.4 76 2.0 W 20 28 11 15 1005.5 1005.5 0.0
30/02:30am 11.9 7.1 7.4 74 2.2 W 22 30 12 16 1005.4 1005.4 0.0
30/02:00am 12.0 6.4 7.1 72 2.4 WNW 26 33 14 18 1005.5 1005.5 0.0
30/01:30am 12.0 4.0 7.5 74 2.2 W 39 46 21 25 1005.4 1005.4 0.0
30/01:00am 12.3 3.9 7.2 71 2.5 WNW 41 54 22 29 1005.5 1005.5 0.0
30/12:45am 12.1 4.5 7.4 73 2.3 WNW 37 56 20 30 1005.6 1005.6 0.0
30/12:30am 12.3 4.7 7.4 72 2.4 WNW 37 48 20 26 1005.6 1005.6 0.0
30/12:00am 12.3 5.5 7.0 70 2.6 WNW 32 44 17 24 1005.8 1005.8 0.0
 
Date/Time
EDT
Temp
°C
App
Temp
°C
Dew
Point
Rel
Hum
%
Delta-T
°C
Wind Press
QNH
hPa
Press
MSL
hPa
Rain
since 9 am
mm
Dir
 
Spd
km/h
Gust
km/h
Spd
kts
Gust
kts
29/11:30pm 12.5 6.8 6.8 68 2.7 WNW 26 32 14 17 1005.9 1005.9 0.0
29/11:00pm 12.7 5.8 6.3 65 3.1 WNW 32 43 17 23 1005.8 1005.8 0.0
29/10:30pm 12.4 4.2 6.7 68 2.7 WNW 39 46 21 25 1005.9 1005.9 0.0
29/10:00pm 12.4 4.7 6.9 69 2.7 WNW 37 48 20 26 1006.0 1006.0 0.0
29/09:30pm 12.6 3.6 7.3 70 2.6 WNW 44 56 24 30 1006.1 1006.1 0.0
29/09:00pm 12.5 4.9 7.6 72 2.4 WNW 37 48 20 26 1006.1 1006.1 0.0
29/08:30pm 13.0 4.4 8.1 72 2.4 WNW 43 54 23 29 1005.9 1005.9 0.0
29/08:27pm 13.0 3.8 7.9 71 2.5 WNW 46 65 25 35 1005.8 1005.8 0.0
29/08:18pm 13.3 2.2 8.0 70 2.6 WNW 56 67 30 36 1005.4 1005.4 0.0
29/08:06pm 13.7 7.0 7.5 66 3.0 WNW 32 50 17 27 1005.3 1005.3 0.0
29/08:00pm 13.7 8.6 7.5 66 3.1 WNW 24 30 13 16 1005.5 1005.5 0.0
29/07:30pm 14.2 9.2 6.6 60 3.7 WNW 22 32 12 17 1005.5 1005.5 0.0
29/07:00pm 14.8 9.2 7.1 60 3.8 WNW 26 35 14 19 1005.2 1005.2 0.0
29/06:30pm 14.8 5.0 6.9 59 3.9 W 48 69 26 37 1004.8 1004.8 0.0
29/06:28pm 14.8 4.5 6.4 57 4.1 W 50 69 27 37 1004.8 1004.8 0.0
29/06:00pm 15.0 5.9 6.6 57 4.1 WNW 44 57 24 31 1004.8 1004.8 0.0
29/05:30pm 14.9 5.7 7.9 63 3.5 W 46 57 25 31 1004.6 1004.6 0.0
29/05:00pm 15.5 4.9 7.0 57 4.2 W 52 61 28 33 1004.5 1004.5 0.0
29/04:31pm 15.2 2.9 7.0 58 4.0 W 61 80 33 43 1004.5 1004.5 0.0
29/04:30pm 15.4 2.9 7.7 60 3.8 W 63 80 34 43 1004.4 1004.4 0.0
29/04:19pm 15.5 4.7 7.8 60 3.9 W 54 72 29 39 1004.1 1004.1 0.0
29/04:00pm 16.2 4.5 7.7 57 4.3 W 59 72 32 39 1004.1 1004.1 0.0
29/03:54pm 16.4 5.3 6.5 52 4.9 WNW 54 72 29 39 1004.0 1004.0 0.0
29/03:30pm 16.9 6.8 7.3 53 4.8 WNW 50 61 27 33 1004.4 1004.4 0.0
29/03:00pm 16.7 6.5 6.8 52 4.9 WNW 50 69 27 37 1004.8 1004.8 0.0
29/02:34pm 16.0 7.4 6.4 53 4.7 WNW 41 65 22 35 1005.0 1005.0 0.0
29/02:30pm 15.7 6.9 7.2 57 4.2 WNW 43 57 23 31 1005.2 1005.2 0.0
29/02:02pm 15.7 4.8 7.2 57 4.2 WNW 54 72 29 39 1005.2 1005.2 0.0
29/02:00pm 15.4 3.7 6.1 54 4.5 WNW 57 74 31 40 1005.2 1005.2 0.0
29/01:48pm 16.0 5.0 6.7 54 4.6 W 54 80 29 43 1005.1 1005.1 0.0
29/01:30pm 16.3 7.7 8.0 58 4.2 W 43 61 23 33 1005.4 1005.4 0.0
29/01:00pm 15.3 6.0 7.6 60 3.9 W 46 57 25 31 1005.6 1005.6 0.0
29/12:42pm 15.2 7.4 6.5 56 4.2 WNW 37 57 20 31 1005.7 1005.7 0.0
29/12:30pm 14.8 6.4 7.4 61 3.7 W 41 54 22 29 1005.9 1005.9 0.0
29/12:16pm 15.5 9.3 6.2 54 4.5 WNW 28 61 15 33 1006.0 1006.0 0.0
29/12:00pm 14.0 9.1 6.8 62 3.5 NW 22 32 12 17 1006.5 1006.5 0.0
29/11:30am 13.9 10.4 7.4 65 3.2 NW 15 20 8 11 1006.8 1006.8 0.0
29/11:00am 13.3 8.8 6.9 65 3.1 N 20 28 11 15 1007.0 1007.0 0.0
29/10:30am 13.1 8.5 6.5 64 3.2 NW 20 32 11 17 1007.5 1007.5 0.0
29/10:00am 11.8 5.6 6.1 68 2.7 NW 28 39 15 21 1007.7 1007.7 0.0
29/09:30am 11.0 4.7 5.5 69 2.5 NW 28 44 15 24 1007.9 1007.9 0.0
29/09:00am 11.0 4.6 5.1 67 2.7 NW 28 37 15 20 1007.8 1007.8 5.4
29/08:30am 10.6 3.4 4.9 68 2.6 WNW 32 44 17 24 1007.7 1007.7 5.4
29/08:00am 10.4 1.9 5.2 70 2.4 WNW 39 50 21 27 1007.5 1007.5 5.4
29/07:30am 10.2 1.5 4.1 66 2.7 WNW 39 54 21 29 1007.3 1007.3 5.4
29/07:20am 10.1 1.4 4.3 67 2.6 WNW 39 57 21 31 1007.3 1007.3 5.4
29/07:00am 9.9 2.0 4.3 68 2.5 WNW 35 50 19 27 1007.4 1007.4 5.4
29/06:30am 9.5 1.3 4.9 73 2.1 WNW 37 50 20 27 1007.3 1007.3 5.4
29/06:29am 9.5 1.3 4.9 73 2.1 WNW 37 50 20 27 1007.3 1007.3 5.4
29/06:00am 8.8 3.2 3.2 68 2.4 NW 22 30 12 16 1007.3 1007.3 5.4
29/05:30am 9.0 4.4 3.6 69 2.3 WNW 17 26 9 14 1007.2 1007.2 5.4
29/05:00am 8.7 2.9 2.5 65 2.6 W 22 28 12 15 1007.2 1007.2 5.4
29/04:30am 9.0 0.9 3.0 66 2.6 W 35 50 19 27 1007.1 1007.1 5.4
29/04:00am 9.3 1.1 2.9 64 2.7 W 35 46 19 25 1007.2 1007.2 5.4
29/03:30am 8.7 -1.0 3.9 72 2.1 W 44 63 24 34 1006.9 1006.9 5.4
29/03:00am 8.9 -2.4 3.3 68 2.4 W 52 70 28 38 1006.6 1006.6 5.4
29/02:30am 9.2 -2.0 1.9 60 3.1 W 50 76 27 41 1006.4 1006.4 5.4
29/02:00am 9.0 -2.9 -0.1 53 3.6 W 52 70 28 38 1006.4 1006.4 5.4
29/01:44am 9.0 -2.4 0.7 56 3.4 W 50 72 27 39 1006.4 1006.4 5.4
29/01:30am 8.5 -1.8 2.9 68 2.4 W 46 61 25 33 1006.5 1006.5 5.4
29/01:10am 8.4 -3.8 2.8 68 2.4 W 56 80 30 43 1006.6 1006.6 5.4
29/01:00am 8.1 -4.0 3.4 72 2.0 W 56 70 30 38 1006.3 1006.3 5.4
29/12:30am 7.5 -6.1 4.5 81 1.3 W 65 89 35 48 1006.3 1006.3 5.2
29/12:28am 7.9 -5.0 3.9 76 1.7 W 61 89 33 48 1006.2 1006.2 5.2
29/12:01am 8.8 -2.6 2.6 65 2.6 W 52 70 28 38 1005.5 1005.5 5.2
29/12:00am 8.8 -3.0 2.6 65 2.6 W 54 70 29 38 1005.5 1005.5 5.2
 
Date/Time
EDT
Temp
°C
App
Temp
°C
Dew
Point
Rel
Hum
%
Delta-T
°C
Wind Press
QNH
hPa
Press
MSL
hPa
Rain
since 9 am
mm
Dir
 
Spd
km/h
Gust
km/h
Spd
kts
Gust
kts
28/11:30pm 8.4 -4.2 3.7 72 2.0 W 59 78 32 42 1005.0 1005.0 5.2
28/11:00pm 8.7 -4.2 4.1 73 2.0 W 61 83 33 45 1004.5 1004.5 5.2
28/10:30pm 9.2 -4.0 4.2 71 2.2 W 63 91 34 49 1003.6 1003.6 5.2
28/10:00pm 8.4 -5.3 4.0 74 1.9 W 65 85 35 46 1002.6 1002.6 5.2
28/09:30pm 7.2 -5.5 5.2 87 0.9 WSW 61 83 33 45 1002.5 1002.5 5.2
28/09:00pm 8.3 -5.9 5.2 81 1.4 W 69 98 37 53 1001.6 1001.7 4.4
28/08:30pm 6.6 -9.3 3.2 79 1.4 W 76 109 41 59 1000.4 1000.5 4.0
28/08:00pm 8.0 -7.9 5.3 83 1.2 W 78 104 42 56 998.9 999.0 3.4
28/07:30pm 9.3 -6.9 3.7 68 2.4 W 78 113 42 61 997.8 997.8 2.8
28/07:00pm 9.2 -7.2 4.4 72 2.1 W 80 111 43 60 996.8 996.8 2.8
28/06:45pm 9.5 -8.1 3.3 65 2.7 W 85 124 46 67 996.1 996.1 2.8
28/06:30pm 9.3 -7.2 4.1 70 2.3 W 80 106 43 57 995.7 995.7 2.8
28/06:03pm 8.9 -8.3 3.5 69 2.3 W 83 102 45 55 994.9 994.9 2.8
28/06:02pm 9.0 -8.1 4.0 71 2.2 W 83 93 45 50 994.9 994.9 2.8
28/06:00pm 9.1 -11.5 4.7 74 2.0 W 102 132 55 71 994.9 994.9 2.8
28/05:58pm 9.1 -12.3 5.1 76 1.8 W 107 132 58 71 994.5 994.5 2.8
28/05:30pm 9.3 -8.3 3.1 65 2.7 W 85 115 46 62 994.1 994.1 2.4
28/05:20pm 9.8 -6.9 2.9 62 3.0 W 80 119 43 64 993.8 993.8 2.4
28/05:19pm 9.6 -6.0 2.5 61 3.0 W 74 100 40 54 994.0 994.0 2.4
28/05:18pm 9.7 -5.3 4.1 68 2.5 W 72 87 39 47 994.0 994.0 2.4
28/05:00pm 10.5 -9.8 1.9 55 3.7 W 98 124 53 67 992.6 992.6 2.4
28/04:55pm 10.7 -9.9 2.3 56 3.6 W 100 120 54 65 992.7 992.7 2.4
28/04:50pm 10.3 -5.8 1.9 56 3.5 W 76 96 41 52 993.1 993.1 2.4
28/04:47pm 9.8 -4.9 2.2 59 3.2 W 69 83 37 45 993.2 993.2 2.4
28/04:30pm 10.6 -9.3 2.2 56 3.6 W 96 124 52 67 992.6 992.6 2.4
28/04:22pm 10.1 -10.5 2.5 59 3.2 W 100 120 54 65 992.4 992.4 2.4
28/04:16pm 9.7 -6.4 4.3 69 2.4 W 78 109 42 59 992.6 992.6 2.4
28/04:00pm 8.2 -6.3 3.7 73 2.0 W 69 87 37 47 993.1 993.1 2.4
28/03:53pm 8.0 -6.4 4.0 76 1.7 W 69 87 37 47 992.8 992.8 2.2
28/03:47pm 8.1 -12.1 2.8 69 2.2 W 98 117 53 63 992.3 992.3 2.2
28/03:34pm 7.7 -8.0 2.4 69 2.2 W 74 111 40 60 992.6 992.6 2.0
28/03:30pm 9.9 -5.3 2.7 61 3.1 W 72 93 39 50 992.7 992.7 2.0
28/03:00pm 10.1 -6.6 2.9 61 3.1 W 80 111 43 60 991.8 991.8 2.0
28/02:35pm 7.8 -10.5 3.8 76 1.7 W 89 109 48 59 992.0 992.0 2.0
28/02:33pm 7.5 -12.6 3.2 74 1.8 W 98 109 53 59 991.9 991.9 2.0
28/02:30pm 6.8 -9.5 3.2 78 1.5 W 78 113 42 61 991.8 991.8 2.0
28/02:00pm 10.6 -5.9 1.9 55 3.7 W 78 104 42 56 991.4 991.4 1.6
28/01:30pm 8.8 -6.9 2.2 63 2.8 W 74 93 40 50 991.6 991.6 1.6
28/01:00pm 6.0 -10.8 2.5 78 1.5 W 80 111 43 60 991.3 991.3 1.6
28/12:54pm 5.6 -8.9 1.3 74 1.7 W 67 111 36 60 991.7 991.7 1.6
28/12:33pm 9.0 -6.2 2.6 64 2.7 W 72 91 39 49 991.1 991.1 1.2
28/12:30pm 8.7 -8.0 2.9 67 2.5 W 80 91 43 49 991.1 991.1 1.2
28/12:26pm 7.7 -13.4 2.0 67 2.4 W 102 124 55 67 990.3 990.3 1.2
28/12:16pm 9.6 -7.7 1.8 58 3.3 W 82 117 44 63 990.3 990.3 1.2
28/12:00pm 8.0 -7.1 3.7 74 1.9 W 72 91 39 49 990.8 990.8 1.0
28/11:30am 8.0 -7.3 2.5 68 2.3 W 72 93 39 50 990.7 990.7 0.8
28/11:28am 8.3 -8.3 3.4 71 2.1 W 80 93 43 50 990.6 990.6 0.8
28/11:27am 8.1 -2.9 3.0 70 2.2 W 50 91 27 49 990.6 990.6 0.8
28/11:25am 8.0 -1.6 3.3 72 2.0 W 43 65 23 35 991.1 991.1 0.8
28/11:11am 7.1 -0.8 4.6 84 1.1 W 35 41 19 22 990.9 990.9 0.8
28/11:05am 5.8 -6.2 3.5 85 1.0 W 56 74 30 40 991.2 991.2 0.6
28/11:00am 5.8 -6.8 3.6 86 0.9 W 59 74 32 40 991.3 991.3 0.6
28/10:33am 5.8 -8.9 2.4 79 1.4 W 69 93 37 50 991.0 991.0 0.2
28/10:30am 6.0 -13.4 1.7 74 1.7 W 93 115 50 62 990.7 990.7 0.2
28/10:29am 6.5 -12.8 2.0 73 1.8 W 93 115 50 62 990.7 990.7 0.2
28/10:28am 6.8 -13.0 1.7 70 2.1 WSW 95 111 51 60 990.7 990.7 0.2
28/10:27am 7.5 -7.4 1.4 65 2.5 W 69 106 37 57 991.2 991.2 0.2
28/10:11am 10.2 -3.7 2.6 59 3.3 W 65 83 35 45 990.4 990.4 0.2
28/10:00am 9.5 -4.5 2.4 61 3.0 W 65 74 35 40 990.6 990.6 0.2
28/09:40am 8.4 -1.2 3.3 70 2.2 WNW 43 61 23 33 991.0 991.0 0.2
28/09:30am 7.7 -1.0 4.1 78 1.6 WNW 39 54 21 29 991.0 991.0 0.2
28/09:23am 6.5 -1.9 3.5 81 1.3 WNW 37 56 20 30 991.1 991.1 0.2
28/09:00am 5.6 -4.7 2.9 83 1.1 WNW 46 59 25 32 991.3 991.3 8.0
28/08:58am 5.8 -5.2 3.1 83 1.1 WNW 50 59 27 32 991.3 991.3 8.0
28/08:45am 7.1 -7.8 2.2 71 2.0 W 70 117 38 63 990.4 990.4 7.8
28/08:44am 7.3 -7.2 1.4 66 2.4 W 67 93 36 50 990.6 990.6 7.8
28/08:30am 7.7 -6.4 1.5 65 2.5 W 65 80 35 43 990.3 990.3 7.8
28/08:04am 6.0 -7.9 2.6 79 1.4 W 65 83 35 45 989.9 989.9 7.8
28/08:00am 5.6 -8.4 2.3 79 1.4 W 65 78 35 42 990.2 990.2 7.8
28/07:57am 6.2 -6.7 3.9 85 1.0 W 61 76 33 41 990.6 990.6 7.8
28/07:30am 6.7 -2.9 3.3 79 1.4 WNW 43 65 23 35 990.1 990.1 7.2
28/07:28am 6.9 -3.6 3.5 79 1.4 WNW 48 67 26 36 990.1 990.1 7.2
28/07:10am 8.1 -4.1 2.6 68 2.3 WNW 56 70 30 38 989.4 989.4 7.2
28/07:05am 8.2 -0.2 1.8 64 2.6 NW 35 54 19 29 989.5 989.5 7.2
28/07:00am 8.3 0.4 2.1 65 2.6 WNW 33 43 18 23 989.4 989.4 7.2
28/06:30am 8.4 0.2 2.8 68 2.4 WNW 35 50 19 27 989.7 989.7 7.2
28/06:07am 8.0 -0.2 2.5 68 2.3 WNW 35 54 19 29 989.5 989.5 7.2
28/06:00am 7.8 -0.2 1.4 64 2.6 WNW 33 46 18 25 989.8 989.8 7.2
28/05:41am 7.9 -2.0 1.7 65 2.5 W 43 67 23 36 989.5 989.5 7.2
28/05:30am 8.1 -1.6 3.0 70 2.2 W 43 54 23 29 989.8 989.8 7.2
28/05:19am 8.1 -0.5 2.4 67 2.4 W 37 72 20 39 989.8 989.8 7.2
28/05:00am 7.8 1.3 4.6 80 1.4 WNW 28 39 15 21 989.7 989.7 7.2
28/04:30am 7.8 0.0 4.9 82 1.3 WNW 35 46 19 25 989.9 989.9 7.2
28/04:01am 7.5 1.1 5.3 86 1.0 W 28 46 15 25 989.7 989.7 7.0
28/04:00am 7.7 1.8 5.7 87 0.9 W 26 46 14 25 989.7 989.7 7.0
28/03:30am 7.8 2.3 6.1 89 0.8 NW 24 30 13 16 989.8 989.8 5.0
28/03:00am 7.7 0.5 6.0 89 0.8 NW 33 52 18 28 990.2 990.2 4.0
28/02:57am 7.6 0.4 5.7 88 0.9 NW 33 52 18 28 990.0 990.0 3.6
28/02:30am 8.0 1.9 4.8 80 1.4 NNW 26 44 14 24 988.8 988.8 2.0
28/02:00am 8.4 1.9 4.6 77 1.7 NW 28 41 15 22 989.8 989.8 2.0
28/01:30am 8.3 3.3 3.8 73 1.9 N 19 24 10 13 990.8 990.8 2.0
28/01:00am 8.8 3.2 3.4 69 2.4 NNW 22 32 12 17 991.5 991.5 2.0

Other Formats:

Comma delimited format used in spreadsheet applications
http://www.bom.gov.au/fwo/IDT60801/IDT60801.95967.axf

JavaScript Object Notation format (JSON) in row-major order
http://www.bom.gov.au/fwo/IDT60801/IDT60801.95967.json